createdAt,value
2022-10-09T00:00:13.700Z,102690.69
2022-10-09T00:02:40.251Z,102688.38
2022-10-09T00:05:07.070Z,102690.25
2022-10-09T00:07:42.601Z,102688.34
2022-10-09T00:10:09.257Z,102685.38
2022-10-09T00:12:41.401Z,102691.81
2022-10-09T00:15:08.149Z,102683.72
2022-10-09T00:17:34.555Z,102688.28
2022-10-09T00:20:00.983Z,102689.34
2022-10-09T00:22:31.252Z,102677.50
2022-10-09T00:24:57.657Z,102695.53
2022-10-09T00:27:24.781Z,102694.44
2022-10-09T00:29:51.453Z,102692.34
2022-10-09T00:32:18.414Z,102695.34
2022-10-09T00:34:53.870Z,102687.84
2022-10-09T00:37:20.421Z,102688.09
2022-10-09T00:39:49.514Z,102692.41
2022-10-09T00:42:15.971Z,102683.78
2022-10-09T00:44:58.183Z,102682.72
2022-10-09T00:47:36.777Z,102686.25
2022-10-09T00:50:40.255Z,102678.44
2022-10-09T00:53:09.280Z,102687.09
2022-10-09T00:55:37.797Z,102679.59
2022-10-09T00:58:04.909Z,102684.47
2022-10-09T01:00:31.464Z,102681.78
2022-10-09T01:02:58.107Z,102700.09
2022-10-09T01:05:52.001Z,102684.81
2022-10-09T01:08:45.448Z,102687.00
2022-10-09T01:11:21.097Z,102680.75
2022-10-09T01:13:47.421Z,102681.28
2022-10-09T01:16:35.963Z,102674.53
2022-10-09T01:19:39.852Z,102684.00
2022-10-09T01:23:04.153Z,102671.63
2022-10-09T01:26:01.700Z,102678.63
2022-10-09T01:28:30.397Z,102675.41
2022-10-09T01:31:03.146Z,102672.19
2022-10-09T01:33:31.617Z,102656.91
2022-10-09T01:35:59.701Z,102656.34
2022-10-09T01:38:28.873Z,102657.44
2022-10-09T01:41:13.206Z,102654.25
2022-10-09T01:43:45.528Z,102649.66
2022-10-09T01:46:25.685Z,102653.69
2022-10-09T01:49:29.734Z,102646.72
2022-10-09T01:52:16.932Z,102645.94
2022-10-09T01:55:08.367Z,102649.69
2022-10-09T01:57:52.596Z,102643.78
2022-10-09T02:00:19.476Z,102647.78
2022-10-09T02:02:48.368Z,102638.91
2022-10-09T02:05:23.365Z,102632.19
2022-10-09T02:07:49.987Z,102631.13
2022-10-09T02:10:18.672Z,102637.56
2022-10-09T02:12:50.912Z,102635.97
2022-10-09T02:15:17.837Z,102628.22
2022-10-09T02:17:54.821Z,102634.13
2022-10-09T02:20:30.236Z,102626.31
2022-10-09T02:22:58.462Z,102620.44
2022-10-09T02:25:25.026Z,102619.91
2022-10-09T02:27:51.481Z,102612.13
2022-10-09T02:30:20.159Z,102615.63
2022-10-09T02:32:51.990Z,102618.59
2022-10-09T02:35:18.622Z,102619.41
2022-10-09T02:37:45.003Z,102612.94
2022-10-09T02:40:11.406Z,102614.56
2022-10-09T02:42:37.945Z,102611.34
2022-10-09T02:45:05.031Z,102617.25
2022-10-09T02:50:13.086Z,102615.13
2022-10-09T02:52:39.638Z,102609.22
2022-10-09T02:55:06.381Z,102615.41
2022-10-09T02:57:32.902Z,102609.75
2022-10-09T03:00:02.070Z,102614.84
2022-10-09T03:02:28.545Z,102606.25
2022-10-09T03:04:54.993Z,102617.25
2022-10-09T03:07:21.372Z,102608.66
2022-10-09T03:09:47.764Z,102612.41
2022-10-09T03:12:16.184Z,102602.75
2022-10-09T03:14:45.608Z,102607.31
2022-10-09T03:17:12.300Z,102608.13
2022-10-09T03:19:38.664Z,102600.91
2022-10-09T03:22:05.092Z,102604.38
2022-10-09T03:24:31.878Z,102607.66
2022-10-09T03:27:07.233Z,102603.34
2022-10-09T03:29:33.609Z,102604.97
2022-10-09T03:32:00.115Z,102606.03
2022-10-09T03:34:32.386Z,102601.19
2022-10-09T03:36:58.741Z,102601.22
2022-10-09T03:39:25.264Z,102601.75
2022-10-09T03:41:51.624Z,102600.94
2022-10-09T03:44:18.009Z,102604.44
2022-10-09T03:46:44.422Z,102603.91
2022-10-09T03:49:11.414Z,102605.53
2022-10-09T03:51:37.960Z,102602.59
2022-10-09T03:54:04.651Z,102604.19
2022-10-09T03:56:31.229Z,102604.75
2022-10-09T03:58:57.613Z,102605.00
2022-10-09T04:01:24.379Z,102617.34
2022-10-09T04:03:51.019Z,102616.56
2022-10-09T04:06:17.449Z,102621.66
2022-10-09T04:08:43.952Z,102622.72
2022-10-09T04:11:10.316Z,102619.50
2022-10-09T04:13:39.936Z,102613.34
2022-10-09T04:16:06.754Z,102628.38
2022-10-09T04:18:33.166Z,102633.47
2022-10-09T04:20:59.719Z,102626.22
2022-10-09T04:23:27.458Z,102619.50
2022-10-09T04:25:54.920Z,102616.56
2022-10-09T04:28:22.168Z,102621.41
2022-10-09T04:30:48.693Z,102613.88
2022-10-09T04:33:15.273Z,102615.25
2022-10-09T04:35:45.634Z,102613.88
2022-10-09T04:38:12.452Z,102611.19
2022-10-09T04:40:38.874Z,102609.88
2022-10-09T04:45:59.039Z,102601.00
2022-10-09T04:48:25.954Z,102597.53
2022-10-09T04:50:52.511Z,102599.94
2022-10-09T04:53:18.893Z,102592.69
2022-10-09T04:55:45.609Z,102598.59
2022-10-09T04:58:13.092Z,102602.88
2022-10-09T05:00:41.794Z,102599.94
2022-10-09T05:03:08.776Z,102590.56
2022-10-09T05:05:35.412Z,102596.72
2022-10-09T05:08:02.096Z,102598.34
2022-10-09T05:10:28.645Z,102599.66
2022-10-09T05:12:55.074Z,102593.25
2022-10-09T05:15:24.029Z,102600.19
2022-10-09T05:17:50.947Z,102588.66
2022-10-09T05:20:17.577Z,102583.03
2022-10-09T05:22:44.783Z,102590.81
2022-10-09T05:25:11.656Z,102590.28
2022-10-09T05:27:38.215Z,102588.13
2022-10-09T05:30:08.132Z,102588.91
2022-10-09T05:32:34.699Z,102584.63
2022-10-09T05:35:06.615Z,102585.41
2022-10-09T05:37:33.009Z,102588.63
2022-10-09T05:40:02.666Z,102584.38
2022-10-09T05:42:29.560Z,102582.22
2022-10-09T05:44:55.987Z,102584.34
2022-10-09T05:47:30.572Z,102587.03
2022-10-09T05:49:56.944Z,102590.28
2022-10-09T05:52:23.543Z,102576.88
2022-10-09T05:54:50.448Z,102581.13
2022-10-09T05:57:16.828Z,102582.22
2022-10-09T05:59:43.873Z,102594.81
2022-10-09T06:02:10.438Z,102591.34
2022-10-09T06:04:36.819Z,102597.22
2022-10-09T06:07:03.319Z,102590.78
2022-10-09T06:09:29.690Z,102591.06
2022-10-09T06:11:56.144Z,102594.00
2022-10-09T06:14:38.231Z,102598.31
2022-10-09T06:17:07.813Z,102598.84
2022-10-09T06:19:34.434Z,102604.22
2022-10-09T06:22:09.943Z,102599.63
2022-10-09T06:24:36.834Z,102600.44
2022-10-09T06:27:03.589Z,102609.56
2022-10-09T06:29:30.631Z,102608.22
2022-10-09T06:31:57.206Z,102618.44
2022-10-09T06:34:24.086Z,102625.16
2022-10-09T06:36:50.718Z,102619.25
2022-10-09T06:39:20.217Z,102610.94
2022-10-09T06:41:49.601Z,102608.50
2022-10-09T06:44:17.278Z,102603.34
2022-10-09T06:46:48.563Z,102604.34
2022-10-09T06:49:14.995Z,102609.16
2022-10-09T06:51:49.998Z,102605.09
2022-10-09T06:54:17.455Z,102608.88
2022-10-09T06:56:53.032Z,102614.13
2022-10-09T06:59:19.500Z,102610.03
2022-10-09T07:01:45.911Z,102610.41
2022-10-09T07:04:14.668Z,102614.78
2022-10-09T07:06:43.955Z,102607.94
2022-10-09T07:09:12.559Z,102604.38
2022-10-09T07:11:49.202Z,102614.94
2022-10-09T07:14:16.311Z,102612.78
2022-10-09T07:16:45.960Z,102614.94
2022-10-09T07:19:13.687Z,102614.84
2022-10-09T07:21:42.954Z,102615.13
2022-10-09T07:24:11.097Z,102608.66
2022-10-09T07:26:40.037Z,102615.25
2022-10-09T07:29:09.167Z,102609.03
2022-10-09T07:31:42.924Z,102609.19
2022-10-09T07:34:09.638Z,102613.47
2022-10-09T07:36:36.305Z,102608.88
2022-10-09T07:39:09.222Z,102599.88
2022-10-09T07:41:35.709Z,102603.63
2022-10-09T07:44:02.646Z,102593.16
2022-10-09T07:46:33.273Z,102604.38
2022-10-09T07:49:01.244Z,102599.28
2022-10-09T07:51:35.597Z,102594.06
2022-10-09T07:54:02.762Z,102601.34
2022-10-09T07:56:31.961Z,102596.94
2022-10-09T07:59:00.596Z,102594.31
2022-10-09T08:01:28.344Z,102598.88
2022-10-09T08:03:55.471Z,102600.50
2022-10-09T08:06:22.257Z,102588.59
2022-10-09T08:08:53.588Z,102588.31
2022-10-09T08:11:30.373Z,102593.19
2022-10-09T08:13:59.784Z,102595.09
2022-10-09T08:19:31.836Z,102585.25
2022-10-09T08:22:16.308Z,102580.06
2022-10-09T08:24:51.693Z,102580.63
2022-10-09T08:30:24.719Z,102579.09
2022-10-09T08:32:54.006Z,102575.31
2022-10-09T08:35:40.568Z,102586.38
2022-10-09T08:38:07.293Z,102570.50
2022-10-09T08:40:36.530Z,102573.03
2022-10-09T08:43:06.641Z,102576.34
2022-10-09T08:45:35.443Z,102560.78
2022-10-09T08:48:26.547Z,102555.69
2022-10-09T08:51:05.543Z,102555.50
2022-10-09T08:53:34.732Z,102553.38
2022-10-09T08:56:03.319Z,102556.50
2022-10-09T08:58:43.800Z,102557.75
2022-10-09T09:01:32.678Z,102552.50
2022-10-09T09:04:37.690Z,102547.19
2022-10-09T09:07:31.863Z,102539.47
2022-10-09T09:10:14.760Z,102542.50
2022-10-09T09:12:50.730Z,102538.00
2022-10-09T09:15:45.048Z,102536.13
2022-10-09T09:18:29.970Z,102534.59
2022-10-09T09:21:04.997Z,102532.03
2022-10-09T09:23:42.519Z,102530.50
2022-10-09T09:26:21.735Z,102525.00
2022-10-09T09:31:54.562Z,102517.53
2022-10-09T09:34:55.909Z,102515.47
2022-10-09T09:37:23.330Z,102510.03
2022-10-09T09:40:36.332Z,102512.22
2022-10-09T09:43:22.548Z,102508.56
2022-10-09T09:46:16.985Z,102509.41
2022-10-09T09:49:00.183Z,102507.69
2022-10-09T09:51:36.048Z,102501.69
2022-10-09T09:54:31.095Z,102503.38
2022-10-09T09:57:17.079Z,102487.69
2022-10-09T10:00:30.986Z,102484.06
2022-10-09T10:03:17.080Z,102484.28
2022-10-09T10:05:44.481Z,102475.88
2022-10-09T10:08:41.873Z,102469.06
2022-10-09T10:11:18.728Z,102474.66
2022-10-09T10:13:54.503Z,102471.88
2022-10-09T10:16:29.505Z,102463.78
2022-10-09T10:22:42.695Z,102465.72
2022-10-09T10:25:34.312Z,102455.59
2022-10-09T10:28:22.779Z,102457.78
2022-10-09T10:30:50.675Z,102457.09
2022-10-09T10:33:47.005Z,102446.75
2022-10-09T10:39:50.245Z,102442.91
2022-10-09T10:43:03.429Z,102434.41
2022-10-09T10:46:18.336Z,102434.53
2022-10-09T10:48:53.995Z,102434.44
2022-10-09T10:51:35.722Z,102424.78
2022-10-09T10:54:17.825Z,102430.78
2022-10-09T10:56:55.936Z,102420.47
2022-10-09T11:00:00.536Z,102413.53
2022-10-09T11:03:08.829Z,102412.06
2022-10-09T11:06:27.510Z,102405.69
2022-10-09T11:09:39.272Z,102402.53
2022-10-09T11:12:50.603Z,102404.22
2022-10-09T11:16:04.338Z,102398.94
2022-10-09T11:22:47.061Z,102383.72
2022-10-09T11:26:08.811Z,102374.22
2022-10-09T11:28:57.201Z,102376.97
2022-10-09T11:31:29.667Z,102368.97
2022-10-09T11:34:46.849Z,102371.63
2022-10-09T11:37:19.269Z,102359.56
2022-10-09T11:39:46.432Z,102360.13
2022-10-09T11:42:21.520Z,102353.41
2022-10-09T11:45:24.475Z,102350.84
2022-10-09T11:48:35.334Z,102345.72
2022-10-09T11:54:44.045Z,102330.59
2022-10-09T11:57:15.279Z,102324.25
2022-10-09T11:59:48.187Z,102320.78
2022-10-09T12:02:27.342Z,102308.34
2022-10-09T12:04:55.381Z,102309.56
2022-10-09T12:07:36.674Z,102303.25
2022-10-09T12:10:20.354Z,102296.78
2022-10-09T12:13:03.314Z,102298.78
2022-10-09T12:15:54.860Z,102278.59
2022-10-09T12:18:32.357Z,102275.50
2022-10-09T12:21:23.226Z,102272.28
2022-10-09T12:23:58.921Z,102263.72
2022-10-09T12:26:31.553Z,102262.94
2022-10-09T12:29:01.590Z,102252.28
2022-10-09T12:31:51.162Z,102252.19
2022-10-09T12:34:25.697Z,102245.56
2022-10-09T12:37:02.695Z,102238.63
2022-10-09T12:39:36.614Z,102232.03
2022-10-09T12:42:04.386Z,102236.19
2022-10-09T12:45:10.505Z,102232.88
2022-10-09T12:47:45.741Z,102221.56
2022-10-09T12:50:12.338Z,102216.38
2022-10-09T12:52:59.788Z,102210.50
2022-10-09T12:55:35.244Z,102200.97
2022-10-09T12:58:21.416Z,102196.66
2022-10-09T13:01:11.147Z,102194.19
2022-10-09T13:03:55.032Z,102190.06
2022-10-09T13:06:26.046Z,102188.91
2022-10-09T13:08:56.384Z,102182.63
2022-10-09T13:11:42.398Z,102178.13
2022-10-09T13:14:50.996Z,102179.41
2022-10-09T13:17:47.145Z,102165.03
2022-10-09T13:20:32.568Z,102168.41
2022-10-09T13:29:48.917Z,102144.25
2022-10-09T13:32:24.452Z,102140.16
2022-10-09T13:34:57.953Z,102139.81
2022-10-09T13:37:41.209Z,102132.81
2022-10-09T13:40:33.209Z,102115.47
2022-10-09T13:43:06.283Z,102119.56
2022-10-09T13:45:32.792Z,102117.81
2022-10-09T13:48:03.117Z,102106.88
2022-10-09T13:50:29.748Z,102105.81
2022-10-09T13:53:14.057Z,102104.31
2022-10-09T13:55:49.807Z,102111.34
2022-10-09T13:58:16.362Z,102105.31
2022-10-09T14:00:45.279Z,102103.34
2022-10-09T14:03:11.701Z,102097.19
2022-10-09T14:05:38.448Z,102098.09
2022-10-09T14:08:05.608Z,102086.78
2022-10-09T14:10:42.814Z,102086.06
2022-10-09T14:15:53.039Z,102076.78
2022-10-09T14:18:25.483Z,102078.22
2022-10-09T14:20:59.136Z,102068.88
2022-10-09T14:23:41.816Z,102067.28
2022-10-09T14:26:08.227Z,102061.28
2022-10-09T14:28:36.514Z,102059.19
2022-10-09T14:31:07.148Z,102057.09
2022-10-09T14:33:33.913Z,102048.50
2022-10-09T14:36:15.183Z,102044.91
2022-10-09T14:38:42.709Z,102038.63
2022-10-09T14:41:09.757Z,102035.19
2022-10-09T14:43:48.297Z,102022.59
2022-10-09T14:46:17.098Z,102026.84
2022-10-09T14:48:48.807Z,102029.16
2022-10-09T14:51:18.018Z,102026.50
2022-10-09T14:53:44.411Z,102018.41
2022-10-09T14:56:13.689Z,102018.72
2022-10-09T14:58:46.823Z,102012.34
2022-10-09T15:01:26.062Z,102004.56
2022-10-09T15:15:25.403Z,101989.50
2022-10-09T15:27:01.242Z,101975.28
2022-10-09T15:33:01.795Z,101964.88
2022-10-09T15:35:30.892Z,101965.59
2022-10-09T15:38:02.814Z,101959.72
2022-10-09T15:40:44.940Z,101956.47
2022-10-09T15:43:38.968Z,101952.47
2022-10-09T16:01:12.977Z,101924.81
2022-10-09T16:04:48.001Z,101918.88
2022-10-09T16:07:14.720Z,101914.69
2022-10-09T16:09:52.682Z,101916.41
2022-10-09T16:12:21.811Z,101903.34
2022-10-09T16:14:48.286Z,101913.72
2022-10-09T16:17:17.662Z,101909.72
2022-10-09T16:20:02.918Z,101905.94
2022-10-09T16:27:56.214Z,101897.16
2022-10-09T16:31:05.485Z,101898.91
2022-10-09T16:33:37.785Z,101904.53
2022-10-09T16:39:34.318Z,101902.91
2022-10-09T16:46:46.985Z,101895.19
2022-10-09T16:49:37.834Z,101887.78
2022-10-09T16:55:03.148Z,101898.88
2022-10-09T16:57:29.687Z,101898.94
2022-10-09T16:59:56.442Z,101896.28
2022-10-09T17:02:49.684Z,101895.97
2022-10-09T17:05:28.866Z,101896.56
2022-10-09T17:07:56.351Z,101899.38
2022-10-09T17:13:03.208Z,101887.97
2022-10-09T17:15:29.861Z,101888.91
2022-10-09T17:18:11.410Z,101892.88
2022-10-09T17:20:38.811Z,101884.84
2022-10-09T17:23:16.140Z,101891.84
2022-10-09T17:25:44.038Z,101889.59
2022-10-09T17:28:19.767Z,101885.41
2022-10-09T17:30:46.217Z,101890.84
2022-10-09T17:34:21.474Z,101883.78
2022-10-09T17:36:51.796Z,101880.59
2022-10-09T17:39:18.311Z,101874.47
2022-10-09T17:41:47.603Z,101888.94
2022-10-09T17:44:23.310Z,101882.41
2022-10-09T17:47:10.414Z,101879.34
2022-10-09T17:49:37.045Z,101875.09
2022-10-09T17:52:03.811Z,101869.63
2022-10-09T17:54:33.458Z,101868.47
2022-10-09T17:57:13.390Z,101870.44
2022-10-09T17:59:40.035Z,101868.59
2022-10-09T18:02:06.497Z,101866.56
2022-10-09T18:04:32.969Z,101863.72
2022-10-09T18:07:14.227Z,101857.22
2022-10-09T18:09:40.709Z,101858.19
2022-10-09T18:12:07.153Z,101854.44
2022-10-09T18:14:39.386Z,101858.13
2022-10-09T18:17:06.057Z,101853.03
2022-10-09T18:19:35.491Z,101845.91
2022-10-09T18:22:01.915Z,101849.13
2022-10-09T18:24:28.557Z,101851.56
2022-10-09T18:26:54.984Z,101845.88
2022-10-09T18:29:22.601Z,101843.53
2022-10-09T18:31:50.525Z,101842.44
2022-10-09T18:34:17.074Z,101843.75
2022-10-09T18:36:43.453Z,101838.84
2022-10-09T18:39:14.519Z,101842.81
2022-10-09T18:41:41.356Z,101836.00
2022-10-09T18:44:12.779Z,101836.50
2022-10-09T18:46:42.576Z,101844.47
2022-10-09T18:49:11.810Z,101837.63
2022-10-09T18:51:40.777Z,101837.03
2022-10-09T18:54:08.329Z,101834.19
2022-10-09T18:56:36.654Z,101833.88
2022-10-09T18:59:10.470Z,101832.78
2022-10-09T19:01:36.999Z,101829.28
2022-10-09T19:04:13.003Z,101827.53
2022-10-09T19:06:39.553Z,101835.31
2022-10-09T19:09:06.549Z,101827.69
2022-10-09T19:11:34.187Z,101834.09
2022-10-09T19:14:00.996Z,101830.41
2022-10-09T19:16:33.048Z,101828.19
2022-10-09T19:19:00.015Z,101826.00
2022-10-09T19:21:26.451Z,101822.66
2022-10-09T19:23:53.903Z,101811.53
2022-10-09T19:26:22.007Z,101804.22
2022-10-09T19:28:48.511Z,101806.59
2022-10-09T19:31:16.437Z,101807.22
2022-10-09T19:33:43.102Z,101806.75
2022-10-09T19:36:12.647Z,101805.03
2022-10-09T19:38:39.424Z,101802.50
2022-10-09T19:41:08.552Z,101805.34
2022-10-09T19:43:36.557Z,101807.06
2022-10-09T19:46:18.014Z,101803.91
2022-10-09T19:48:45.763Z,101799.44
2022-10-09T19:51:26.393Z,101801.34
2022-10-09T19:53:53.679Z,101795.94
2022-10-09T19:56:26.350Z,101790.06
2022-10-09T19:58:54.481Z,101794.19
2022-10-09T20:01:24.078Z,101785.44
2022-10-09T20:04:00.211Z,101784.34
2022-10-09T20:06:27.877Z,101781.94
2022-10-09T20:08:54.281Z,101787.47
2022-10-09T20:11:21.180Z,101781.59
2022-10-09T20:13:53.454Z,101778.75
2022-10-09T20:16:22.909Z,101775.69
2022-10-09T20:18:49.954Z,101765.81
2022-10-09T20:21:18.038Z,101758.94
2022-10-09T20:23:45.183Z,101757.69
2022-10-09T20:26:18.435Z,101751.00
2022-10-09T20:28:46.173Z,101757.19
2022-10-09T20:31:17.979Z,101752.59
2022-10-09T20:33:45.955Z,101762.91
2022-10-09T20:36:26.159Z,101754.44
2022-10-09T20:38:58.384Z,101750.31
2022-10-09T20:41:25.998Z,101752.53
2022-10-09T20:43:53.907Z,101756.63
2022-10-09T20:46:21.783Z,101761.25
2022-10-09T20:48:48.593Z,101748.84
2022-10-09T20:51:15.525Z,101751.06
2022-10-09T20:53:42.043Z,101741.38
2022-10-09T20:56:11.584Z,101743.59
2022-10-09T20:58:39.106Z,101734.56
2022-10-09T21:01:10.407Z,101727.41
2022-10-09T21:03:38.238Z,101725.81
2022-10-09T21:06:11.300Z,101719.94
2022-10-09T21:08:38.833Z,101715.97
2022-10-09T21:11:11.174Z,101717.88
2022-10-09T21:13:38.911Z,101713.88
2022-10-09T21:16:11.550Z,101719.41
2022-10-09T21:18:39.168Z,101721.13
2022-10-09T21:21:07.892Z,101719.06
2022-10-09T21:23:35.333Z,101711.59
2022-10-09T21:26:02.452Z,101715.22
2022-10-09T21:28:29.336Z,101709.16
2022-10-09T21:30:55.884Z,101708.38
2022-10-09T21:33:22.290Z,101707.41
2022-10-09T21:35:51.267Z,101700.59
2022-10-09T21:38:19.918Z,101700.41
2022-10-09T21:40:46.994Z,101693.75
2022-10-09T21:43:13.496Z,101686.47
2022-10-09T21:45:40.527Z,101686.94
2022-10-09T21:48:07.049Z,101692.66
2022-10-09T21:50:34.476Z,101690.91
2022-10-09T21:53:00.864Z,101689.59
2022-10-09T21:55:27.471Z,101683.13
2022-10-09T21:57:54.426Z,101686.13
2022-10-09T22:00:21.499Z,101688.63
2022-10-09T22:02:48.072Z,101695.09
2022-10-09T22:05:15.378Z,101678.59
2022-10-09T22:07:41.803Z,101680.31
2022-10-09T22:10:08.714Z,101683.75
2022-10-09T22:12:35.165Z,101678.97
2022-10-09T22:15:01.763Z,101678.38
2022-10-09T22:17:28.296Z,101681.66
2022-10-09T22:19:54.863Z,101682.56
2022-10-09T22:22:23.696Z,101675.44
2022-10-09T22:24:51.108Z,101671.44
2022-10-09T22:27:18.864Z,101667.78
2022-10-09T22:29:45.304Z,101669.88
2022-10-09T22:32:11.965Z,101671.94
2022-10-09T22:34:38.525Z,101673.84
2022-10-09T22:37:05.024Z,101667.84
2022-10-09T22:39:31.643Z,101663.56
2022-10-09T22:41:58.008Z,101667.38
2022-10-09T22:44:24.435Z,101660.69
2022-10-09T22:46:51.182Z,101660.19
2022-10-09T22:49:18.204Z,101653.53
2022-10-09T22:51:45.377Z,101647.94
2022-10-09T22:54:13.191Z,101650.66
2022-10-09T22:56:43.553Z,101649.97
2022-10-09T22:59:12.105Z,101649.78
2022-10-09T23:01:54.935Z,101643.63
2022-10-09T23:04:22.644Z,101642.97
2022-10-09T23:06:52.487Z,101647.66
2022-10-09T23:09:19.649Z,101643.97
2022-10-09T23:11:46.139Z,101645.69
2022-10-09T23:14:13.245Z,101641.41
2022-10-09T23:16:40.215Z,101629.16
2022-10-09T23:19:07.468Z,101630.69
2022-10-09T23:21:35.265Z,101634.59
2022-10-09T23:24:01.762Z,101626.81
2022-10-09T23:26:30.694Z,101623.81
2022-10-09T23:29:02.548Z,101625.44
2022-10-09T23:31:29.602Z,101627.03
2022-10-09T23:33:56.722Z,101623.13
2022-10-09T23:36:25.345Z,101622.34
2022-10-09T23:38:52.104Z,101624.19
2022-10-09T23:41:21.196Z,101617.06
2022-10-09T23:43:48.478Z,101615.47
2022-10-09T23:46:20.211Z,101612.47
2022-10-09T23:48:47.917Z,101611.69
2022-10-09T23:51:15.175Z,101610.69
2022-10-09T23:53:42.154Z,101608.09
2022-10-09T23:56:38.784Z,101602.25
2022-10-09T23:59:06.249Z,101601.75
